sensor_id;sensor_type;location;lat;lon;timestamp;temperature;humidity
67750;DHT22;54550;48.838;8.828;2023-04-15T00:01:22;1.40;99.90
67750;DHT22;54550;48.838;8.828;2023-04-15T00:03:50;1.40;99.90
67750;DHT22;54550;48.838;8.828;2023-04-15T00:06:17;1.30;99.90
67750;DHT22;54550;48.838;8.828;2023-04-15T00:08:44;1.30;99.90
67750;DHT22;54550;48.838;8.828;2023-04-15T00:11:10;1.40;99.90
67750;DHT22;54550;48.838;8.828;2023-04-15T00:13:35;1.50;99.90
67750;DHT22;54550;48.838;8.828;2023-04-15T00:16:02;1.60;99.90
67750;DHT22;54550;48.838;8.828;2023-04-15T00:18:27;1.60;99.90
67750;DHT22;54550;48.838;8.828;2023-04-15T00:20:54;1.60;99.90
67750;DHT22;54550;48.838;8.828;2023-04-15T00:23:19;1.60;99.90
67750;DHT22;54550;48.838;8.828;2023-04-15T00:25:45;1.70;99.90
67750;DHT22;54550;48.838;8.828;2023-04-15T00:28:11;1.50;99.90
67750;DHT22;54550;48.838;8.828;2023-04-15T00:30:36;1.50;99.90
67750;DHT22;54550;48.838;8.828;2023-04-15T00:33:02;1.40;99.90
67750;DHT22;54550;48.838;8.828;2023-04-15T00:35:28;1.30;99.90
67750;DHT22;54550;48.838;8.828;2023-04-15T00:37:54;1.20;99.90
67750;DHT22;54550;48.838;8.828;2023-04-15T00:40:20;1.20;99.90
67750;DHT22;54550;48.838;8.828;2023-04-15T00:42:46;1.30;99.90
67750;DHT22;54550;48.838;8.828;2023-04-15T00:45:12;1.40;99.90
67750;DHT22;54550;48.838;8.828;2023-04-15T00:47:40;1.60;99.90
67750;DHT22;54550;48.838;8.828;2023-04-15T00:50:07;1.80;99.90
67750;DHT22;54550;48.838;8.828;2023-04-15T00:52:33;2.00;99.90
67750;DHT22;54550;48.838;8.828;2023-04-15T00:54:59;2.00;99.90
67750;DHT22;54550;48.838;8.828;2023-04-15T00:57:25;2.10;99.90
67750;DHT22;54550;48.838;8.828;2023-04-15T00:59:54;2.30;99.90
67750;DHT22;54550;48.838;8.828;2023-04-15T01:02:20;2.40;99.90
67750;DHT22;54550;48.838;8.828;2023-04-15T01:04:46;2.50;99.90
67750;DHT22;54550;48.838;8.828;2023-04-15T01:07:12;2.40;99.90
67750;DHT22;54550;48.838;8.828;2023-04-15T01:09:38;2.40;99.90
67750;DHT22;54550;48.838;8.828;2023-04-15T01:12:05;2.20;99.90
67750;DHT22;54550;48.838;8.828;2023-04-15T01:14:32;2.10;99.90
67750;DHT22;54550;48.838;8.828;2023-04-15T01:16:58;2.00;99.90
67750;DHT22;54550;48.838;8.828;2023-04-15T01:19:24;1.90;99.90
67750;DHT22;54550;48.838;8.828;2023-04-15T01:21:49;1.90;99.90
67750;DHT22;54550;48.838;8.828;2023-04-15T01:24:17;2.00;99.90
67750;DHT22;54550;48.838;8.828;2023-04-15T01:26:44;2.00;99.90
67750;DHT22;54550;48.838;8.828;2023-04-15T01:29:11;1.90;99.90
67750;DHT22;54550;48.838;8.828;2023-04-15T01:31:36;1.70;99.90
67750;DHT22;54550;48.838;8.828;2023-04-15T01:34:02;1.70;99.90
67750;DHT22;54550;48.838;8.828;2023-04-15T01:36:27;1.60;99.90
67750;DHT22;54550;48.838;8.828;2023-04-15T01:38:55;1.50;99.90
67750;DHT22;54550;48.838;8.828;2023-04-15T01:41:27;1.70;99.90
67750;DHT22;54550;48.838;8.828;2023-04-15T01:43:53;1.70;99.90
67750;DHT22;54550;48.838;8.828;2023-04-15T01:46:19;1.70;99.90
67750;DHT22;54550;48.838;8.828;2023-04-15T01:48:45;1.70;99.90
67750;DHT22;54550;48.838;8.828;2023-04-15T01:51:10;1.80;99.90
67750;DHT22;54550;48.838;8.828;2023-04-15T01:53:36;1.80;99.90
67750;DHT22;54550;48.838;8.828;2023-04-15T01:56:02;1.80;99.90
67750;DHT22;54550;48.838;8.828;2023-04-15T01:58:27;1.90;99.90
67750;DHT22;54550;48.838;8.828;2023-04-15T02:00:53;1.90;99.90
67750;DHT22;54550;48.838;8.828;2023-04-15T02:03:18;1.90;99.90
67750;DHT22;54550;48.838;8.828;2023-04-15T02:05:44;1.90;99.90
67750;DHT22;54550;48.838;8.828;2023-04-15T02:08:10;1.90;99.90
67750;DHT22;54550;48.838;8.828;2023-04-15T02:10:36;1.80;99.90
67750;DHT22;54550;48.838;8.828;2023-04-15T02:13:03;1.80;99.90
67750;DHT22;54550;48.838;8.828;2023-04-15T02:15:29;1.80;99.90
67750;DHT22;54550;48.838;8.828;2023-04-15T02:17:54;1.70;99.90
67750;DHT22;54550;48.838;8.828;2023-04-15T02:20:20;1.70;99.90
67750;DHT22;54550;48.838;8.828;2023-04-15T02:22:47;1.60;99.90
67750;DHT22;54550;48.838;8.828;2023-04-15T02:25:13;1.60;99.90
67750;DHT22;54550;48.838;8.828;2023-04-15T02:27:39;1.60;99.90
67750;DHT22;54550;48.838;8.828;2023-04-15T02:30:05;1.50;99.90
67750;DHT22;54550;48.838;8.828;2023-04-15T02:32:32;1.50;99.90
67750;DHT22;54550;48.838;8.828;2023-04-15T02:35:02;1.50;99.90
67750;DHT22;54550;48.838;8.828;2023-04-15T02:37:28;1.50;99.90
67750;DHT22;54550;48.838;8.828;2023-04-15T02:39:56;1.40;99.90
67750;DHT22;54550;48.838;8.828;2023-04-15T02:42:21;1.30;99.90
67750;DHT22;54550;48.838;8.828;2023-04-15T02:44:47;1.20;99.90
67750;DHT22;54550;48.838;8.828;2023-04-15T02:47:12;1.20;99.90
67750;DHT22;54550;48.838;8.828;2023-04-15T02:49:39;1.10;99.90
67750;DHT22;54550;48.838;8.828;2023-04-15T02:52:05;1.00;99.90
67750;DHT22;54550;48.838;8.828;2023-04-15T02:54:31;1.00;99.90
67750;DHT22;54550;48.838;8.828;2023-04-15T02:56:58;1.20;99.90
67750;DHT22;54550;48.838;8.828;2023-04-15T02:59:24;1.40;99.90
67750;DHT22;54550;48.838;8.828;2023-04-15T03:01:50;1.50;99.90
67750;DHT22;54550;48.838;8.828;2023-04-15T03:04:15;1.40;99.90
67750;DHT22;54550;48.838;8.828;2023-04-15T03:06:41;1.30;99.90
67750;DHT22;54550;48.838;8.828;2023-04-15T03:09:07;1.20;99.90
67750;DHT22;54550;48.838;8.828;2023-04-15T03:11:33;1.10;99.90
67750;DHT22;54550;48.838;8.828;2023-04-15T03:14:01;1.00;99.90
67750;DHT22;54550;48.838;8.828;2023-04-15T03:16:26;1.00;99.90
67750;DHT22;54550;48.838;8.828;2023-04-15T03:18:52;1.00;99.90
67750;DHT22;54550;48.838;8.828;2023-04-15T03:21:17;1.00;99.90
67750;DHT22;54550;48.838;8.828;2023-04-15T03:23:44;1.00;99.90
67750;DHT22;54550;48.838;8.828;2023-04-15T03:26:31;0.90;99.90
67750;DHT22;54550;48.838;8.828;2023-04-15T03:28:57;0.90;99.90
67750;DHT22;54550;48.838;8.828;2023-04-15T03:31:23;0.80;99.90
67750;DHT22;54550;48.838;8.828;2023-04-15T03:33:48;0.80;99.90
67750;DHT22;54550;48.838;8.828;2023-04-15T03:36:15;0.90;99.90
67750;DHT22;54550;48.838;8.828;2023-04-15T03:38:41;0.90;99.90
67750;DHT22;54550;48.838;8.828;2023-04-15T03:41:07;0.90;99.90
67750;DHT22;54550;48.838;8.828;2023-04-15T03:43:33;1.00;99.90
67750;DHT22;54550;48.838;8.828;2023-04-15T03:45:59;0.90;99.90
67750;DHT22;54550;48.838;8.828;2023-04-15T03:48:25;0.80;99.90
67750;DHT22;54550;48.838;8.828;2023-04-15T03:50:50;0.70;99.90
67750;DHT22;54550;48.838;8.828;2023-04-15T03:53:16;0.70;99.90
67750;DHT22;54550;48.838;8.828;2023-04-15T03:55:42;0.80;99.90
67750;DHT22;54550;48.838;8.828;2023-04-15T03:58:08;0.80;99.90
67750;DHT22;54550;48.838;8.828;2023-04-15T04:00:37;0.90;99.90
67750;DHT22;54550;48.838;8.828;2023-04-15T04:03:03;0.90;99.90
67750;DHT22;54550;48.838;8.828;2023-04-15T04:05:29;1.00;99.90
67750;DHT22;54550;48.838;8.828;2023-04-15T04:07:54;0.90;99.90
67750;DHT22;54550;48.838;8.828;2023-04-15T04:10:20;0.80;99.90
67750;DHT22;54550;48.838;8.828;2023-04-15T04:12:45;0.80;99.90
67750;DHT22;54550;48.838;8.828;2023-04-15T04:15:11;0.90;99.90
67750;DHT22;54550;48.838;8.828;2023-04-15T04:17:37;1.00;99.90
67750;DHT22;54550;48.838;8.828;2023-04-15T04:20:02;1.00;99.90
67750;DHT22;54550;48.838;8.828;2023-04-15T04:22:28;1.10;99.90
67750;DHT22;54550;48.838;8.828;2023-04-15T04:24:54;1.10;99.90
67750;DHT22;54550;48.838;8.828;2023-04-15T04:27:20;1.10;99.90
67750;DHT22;54550;48.838;8.828;2023-04-15T04:29:45;1.10;99.90
67750;DHT22;54550;48.838;8.828;2023-04-15T04:32:12;1.00;99.90
67750;DHT22;54550;48.838;8.828;2023-04-15T04:34:37;1.10;99.90
67750;DHT22;54550;48.838;8.828;2023-04-15T04:37:03;1.10;99.90
67750;DHT22;54550;48.838;8.828;2023-04-15T04:39:28;1.00;99.90
67750;DHT22;54550;48.838;8.828;2023-04-15T04:41:54;0.80;99.90
67750;DHT22;54550;48.838;8.828;2023-04-15T04:44:20;0.70;99.90
67750;DHT22;54550;48.838;8.828;2023-04-15T04:46:46;0.70;99.90
67750;DHT22;54550;48.838;8.828;2023-04-15T04:49:12;0.80;99.90
67750;DHT22;54550;48.838;8.828;2023-04-15T04:51:37;0.80;99.90
67750;DHT22;54550;48.838;8.828;2023-04-15T04:54:03;0.70;99.90
67750;DHT22;54550;48.838;8.828;2023-04-15T04:56:28;0.70;99.90
67750;DHT22;54550;48.838;8.828;2023-04-15T04:58:54;0.60;99.90
67750;DHT22;54550;48.838;8.828;2023-04-15T05:01:20;0.40;99.90
67750;DHT22;54550;48.838;8.828;2023-04-15T05:03:45;0.40;99.90
67750;DHT22;54550;48.838;8.828;2023-04-15T05:06:11;0.50;99.90
67750;DHT22;54550;48.838;8.828;2023-04-15T05:08:36;0.60;99.90
67750;DHT22;54550;48.838;8.828;2023-04-15T05:11:02;0.60;99.90
67750;DHT22;54550;48.838;8.828;2023-04-15T05:13:28;0.70;99.90
67750;DHT22;54550;48.838;8.828;2023-04-15T05:15:54;0.80;99.90
67750;DHT22;54550;48.838;8.828;2023-04-15T05:18:20;1.00;99.90
67750;DHT22;54550;48.838;8.828;2023-04-15T05:20:46;1.20;99.90
67750;DHT22;54550;48.838;8.828;2023-04-15T05:23:11;1.30;99.90
67750;DHT22;54550;48.838;8.828;2023-04-15T05:25:37;1.30;99.90
67750;DHT22;54550;48.838;8.828;2023-04-15T05:28:02;1.30;99.90
67750;DHT22;54550;48.838;8.828;2023-04-15T05:30:28;1.40;99.90
67750;DHT22;54550;48.838;8.828;2023-04-15T05:32:53;1.50;99.90
67750;DHT22;54550;48.838;8.828;2023-04-15T05:35:19;1.60;99.90
67750;DHT22;54550;48.838;8.828;2023-04-15T05:37:45;1.90;99.90
67750;DHT22;54550;48.838;8.828;2023-04-15T05:40:11;2.20;99.90
67750;DHT22;54550;48.838;8.828;2023-04-15T05:42:36;2.40;99.90
67750;DHT22;54550;48.838;8.828;2023-04-15T05:45:02;2.50;99.90
67750;DHT22;54550;48.838;8.828;2023-04-15T05:47:30;2.70;99.90
67750;DHT22;54550;48.838;8.828;2023-04-15T05:49:56;2.80;99.90
67750;DHT22;54550;48.838;8.828;2023-04-15T05:52:23;2.90;99.90
67750;DHT22;54550;48.838;8.828;2023-04-15T05:54:48;3.00;99.90
67750;DHT22;54550;48.838;8.828;2023-04-15T05:57:14;3.40;99.90
67750;DHT22;54550;48.838;8.828;2023-04-15T05:59:39;3.60;99.90
67750;DHT22;54550;48.838;8.828;2023-04-15T06:02:06;4.00;99.90
67750;DHT22;54550;48.838;8.828;2023-04-15T06:04:32;4.60;99.90
67750;DHT22;54550;48.838;8.828;2023-04-15T06:06:57;4.90;99.90
67750;DHT22;54550;48.838;8.828;2023-04-15T06:09:23;5.20;99.90
67750;DHT22;54550;48.838;8.828;2023-04-15T06:11:48;5.10;99.90
67750;DHT22;54550;48.838;8.828;2023-04-15T06:14:14;4.70;99.90
67750;DHT22;54550;48.838;8.828;2023-04-15T06:16:39;4.70;99.90
67750;DHT22;54550;48.838;8.828;2023-04-15T06:19:05;5.20;99.90
67750;DHT22;54550;48.838;8.828;2023-04-15T06:21:31;5.60;99.90
67750;DHT22;54550;48.838;8.828;2023-04-15T06:23:58;6.10;99.90
67750;DHT22;54550;48.838;8.828;2023-04-15T06:26:24;6.40;99.90
67750;DHT22;54550;48.838;8.828;2023-04-15T06:28:50;6.50;99.90
67750;DHT22;54550;48.838;8.828;2023-04-15T06:31:16;6.80;99.90
67750;DHT22;54550;48.838;8.828;2023-04-15T06:33:41;7.00;99.90
67750;DHT22;54550;48.838;8.828;2023-04-15T06:36:07;7.00;99.90
67750;DHT22;54550;48.838;8.828;2023-04-15T06:38:32;6.90;99.90
67750;DHT22;54550;48.838;8.828;2023-04-15T06:40:58;7.20;99.90
67750;DHT22;54550;48.838;8.828;2023-04-15T06:43:24;7.60;99.90
67750;DHT22;54550;48.838;8.828;2023-04-15T06:45:50;8.00;99.90
67750;DHT22;54550;48.838;8.828;2023-04-15T06:48:16;8.50;99.90
67750;DHT22;54550;48.838;8.828;2023-04-15T06:50:42;8.40;99.90
67750;DHT22;54550;48.838;8.828;2023-04-15T06:53:08;8.80;99.90
67750;DHT22;54550;48.838;8.828;2023-04-15T06:55:33;9.00;99.90
67750;DHT22;54550;48.838;8.828;2023-04-15T06:57:59;9.80;99.90
67750;DHT22;54550;48.838;8.828;2023-04-15T07:00:24;10.10;99.90
67750;DHT22;54550;48.838;8.828;2023-04-15T07:02:50;10.60;99.90
67750;DHT22;54550;48.838;8.828;2023-04-15T07:05:16;11.20;99.70
67750;DHT22;54550;48.838;8.828;2023-04-15T07:07:42;11.50;99.90
67750;DHT22;54550;48.838;8.828;2023-04-15T07:10:08;11.40;99.90
67750;DHT22;54550;48.838;8.828;2023-04-15T07:12:34;11.20;99.90
67750;DHT22;54550;48.838;8.828;2023-04-15T07:15:00;11.40;99.90
67750;DHT22;54550;48.838;8.828;2023-04-15T07:17:25;11.50;99.90
67750;DHT22;54550;48.838;8.828;2023-04-15T07:19:51;11.50;99.90
67750;DHT22;54550;48.838;8.828;2023-04-15T07:22:17;11.60;99.90
67750;DHT22;54550;48.838;8.828;2023-04-15T07:24:42;12.60;99.30
67750;DHT22;54550;48.838;8.828;2023-04-15T07:27:08;13.00;99.30
67750;DHT22;54550;48.838;8.828;2023-04-15T07:29:33;13.50;98.20
67750;DHT22;54550;48.838;8.828;2023-04-15T07:31:59;13.90;96.60
67750;DHT22;54550;48.838;8.828;2023-04-15T07:34:24;14.00;95.80
67750;DHT22;54550;48.838;8.828;2023-04-15T07:36:50;14.50;94.10
67750;DHT22;54550;48.838;8.828;2023-04-15T07:39:17;14.50;93.60
67750;DHT22;54550;48.838;8.828;2023-04-15T07:41:42;14.20;93.90
67750;DHT22;54550;48.838;8.828;2023-04-15T07:44:08;14.30;94.40
67750;DHT22;54550;48.838;8.828;2023-04-15T07:46:34;14.30;93.20
67750;DHT22;54550;48.838;8.828;2023-04-15T07:49:00;14.60;93.80
67750;DHT22;54550;48.838;8.828;2023-04-15T07:51:26;15.00;92.50
67750;DHT22;54550;48.838;8.828;2023-04-15T07:53:51;15.10;92.10
67750;DHT22;54550;48.838;8.828;2023-04-15T07:56:17;15.40;91.10
67750;DHT22;54550;48.838;8.828;2023-04-15T07:58:43;15.30;91.50
67750;DHT22;54550;48.838;8.828;2023-04-15T08:01:08;15.30;92.10
67750;DHT22;54550;48.838;8.828;2023-04-15T08:03:34;15.30;90.40
67750;DHT22;54550;48.838;8.828;2023-04-15T08:05:59;14.70;90.30
67750;DHT22;54550;48.838;8.828;2023-04-15T08:08:25;14.80;90.90
67750;DHT22;54550;48.838;8.828;2023-04-15T08:10:51;14.60;91.10
67750;DHT22;54550;48.838;8.828;2023-04-15T08:13:17;14.50;91.40
67750;DHT22;54550;48.838;8.828;2023-04-15T08:15:42;14.80;90.80
67750;DHT22;54550;48.838;8.828;2023-04-15T08:18:08;15.20;90.30
67750;DHT22;54550;48.838;8.828;2023-04-15T08:20:33;15.90;90.30
67750;DHT22;54550;48.838;8.828;2023-04-15T08:22:59;17.10;85.70
67750;DHT22;54550;48.838;8.828;2023-04-15T08:25:25;17.70;82.00
67750;DHT22;54550;48.838;8.828;2023-04-15T08:27:54;18.20;80.90
67750;DHT22;54550;48.838;8.828;2023-04-15T08:30:19;18.20;81.00
67750;DHT22;54550;48.838;8.828;2023-04-15T08:32:46;18.60;77.90
67750;DHT22;54550;48.838;8.828;2023-04-15T08:35:12;18.30;75.40
67750;DHT22;54550;48.838;8.828;2023-04-15T08:37:38;17.70;74.90
67750;DHT22;54550;48.838;8.828;2023-04-15T08:40:04;17.60;77.20
67750;DHT22;54550;48.838;8.828;2023-04-15T08:42:36;17.20;78.60
67750;DHT22;54550;48.838;8.828;2023-04-15T08:45:08;16.80;77.80
67750;DHT22;54550;48.838;8.828;2023-04-15T08:47:36;16.30;77.10
67750;DHT22;54550;48.838;8.828;2023-04-15T08:50:04;15.90;79.10
67750;DHT22;54550;48.838;8.828;2023-04-15T08:52:33;15.80;82.10
67750;DHT22;54550;48.838;8.828;2023-04-15T08:54:59;15.80;80.50
67750;DHT22;54550;48.838;8.828;2023-04-15T08:57:27;15.40;83.10
67750;DHT22;54550;48.838;8.828;2023-04-15T08:59:55;15.10;83.90
67750;DHT22;54550;48.838;8.828;2023-04-15T09:02:23;15.30;85.10
67750;DHT22;54550;48.838;8.828;2023-04-15T09:04:49;15.40;82.70
67750;DHT22;54550;48.838;8.828;2023-04-15T09:07:14;15.70;82.50
67750;DHT22;54550;48.838;8.828;2023-04-15T09:09:40;15.80;83.60
67750;DHT22;54550;48.838;8.828;2023-04-15T09:12:07;16.00;81.50
67750;DHT22;54550;48.838;8.828;2023-04-15T09:14:33;16.50;83.50
67750;DHT22;54550;48.838;8.828;2023-04-15T09:17:00;16.70;83.00
67750;DHT22;54550;48.838;8.828;2023-04-15T09:19:26;16.60;80.30
67750;DHT22;54550;48.838;8.828;2023-04-15T09:21:56;17.00;78.90
67750;DHT22;54550;48.838;8.828;2023-04-15T09:24:23;16.70;80.40
67750;DHT22;54550;48.838;8.828;2023-04-15T09:26:52;16.60;79.50
67750;DHT22;54550;48.838;8.828;2023-04-15T09:29:19;16.60;79.70
67750;DHT22;54550;48.838;8.828;2023-04-15T09:31:48;16.90;80.00
67750;DHT22;54550;48.838;8.828;2023-04-15T09:34:13;17.00;80.00
67750;DHT22;54550;48.838;8.828;2023-04-15T09:39:10;17.30;79.70
67750;DHT22;54550;48.838;8.828;2023-04-15T09:41:36;17.60;81.30
67750;DHT22;54550;48.838;8.828;2023-04-15T09:44:02;17.60;78.80
67750;DHT22;54550;48.838;8.828;2023-04-15T09:46:41;17.80;78.40
67750;DHT22;54550;48.838;8.828;2023-04-15T09:49:08;17.50;79.20
67750;DHT22;54550;48.838;8.828;2023-04-15T09:51:35;17.10;76.30
67750;DHT22;54550;48.838;8.828;2023-04-15T09:54:01;16.70;77.20
67750;DHT22;54550;48.838;8.828;2023-04-15T09:56:35;16.50;78.40
67750;DHT22;54550;48.838;8.828;2023-04-15T09:59:04;16.20;75.80
67750;DHT22;54550;48.838;8.828;2023-04-15T10:01:30;16.30;76.20
67750;DHT22;54550;48.838;8.828;2023-04-15T10:03:56;16.10;76.10
67750;DHT22;54550;48.838;8.828;2023-04-15T10:06:25;16.40;79.00
67750;DHT22;54550;48.838;8.828;2023-04-15T10:08:51;16.10;80.30
67750;DHT22;54550;48.838;8.828;2023-04-15T10:11:19;16.10;80.80
67750;DHT22;54550;48.838;8.828;2023-04-15T10:13:48;16.20;81.50
67750;DHT22;54550;48.838;8.828;2023-04-15T10:16:15;16.70;76.50
67750;DHT22;54550;48.838;8.828;2023-04-15T10:18:46;16.50;76.90
67750;DHT22;54550;48.838;8.828;2023-04-15T10:21:13;16.10;76.50
67750;DHT22;54550;48.838;8.828;2023-04-15T10:23:46;16.30;78.60
67750;DHT22;54550;48.838;8.828;2023-04-15T10:26:12;16.50;75.70
67750;DHT22;54550;48.838;8.828;2023-04-15T10:28:39;16.70;76.30
67750;DHT22;54550;48.838;8.828;2023-04-15T10:31:05;16.70;75.90
67750;DHT22;54550;48.838;8.828;2023-04-15T10:33:32;16.00;76.60
67750;DHT22;54550;48.838;8.828;2023-04-15T10:35:58;15.80;76.30
67750;DHT22;54550;48.838;8.828;2023-04-15T10:38:32;15.60;75.70
67750;DHT22;54550;48.838;8.828;2023-04-15T10:43:54;15.60;77.30
67750;DHT22;54550;48.838;8.828;2023-04-15T10:49:16;15.90;76.80
67750;DHT22;54550;48.838;8.828;2023-04-15T10:51:46;15.60;78.80
67750;DHT22;54550;48.838;8.828;2023-04-15T10:54:29;15.10;79.00
67750;DHT22;54550;48.838;8.828;2023-04-15T11:05:17;15.50;81.90
67750;DHT22;54550;48.838;8.828;2023-04-15T11:12:52;15.60;80.30
67750;DHT22;54550;48.838;8.828;2023-04-15T11:15:34;15.30;80.20
67750;DHT22;54550;48.838;8.828;2023-04-15T11:18:21;15.40;81.90
67750;DHT22;54550;48.838;8.828;2023-04-15T11:21:07;16.20;83.20
67750;DHT22;54550;48.838;8.828;2023-04-15T11:23:39;16.90;82.30
67750;DHT22;54550;48.838;8.828;2023-04-15T11:26:07;16.90;78.30
67750;DHT22;54550;48.838;8.828;2023-04-15T11:28:34;16.30;77.90
67750;DHT22;54550;48.838;8.828;2023-04-15T11:33:36;15.40;82.30
67750;DHT22;54550;48.838;8.828;2023-04-15T11:36:02;14.90;83.60
67750;DHT22;54550;48.838;8.828;2023-04-15T11:38:28;14.80;85.80
67750;DHT22;54550;48.838;8.828;2023-04-15T11:40:54;15.10;86.40
67750;DHT22;54550;48.838;8.828;2023-04-15T11:43:21;15.90;87.80
67750;DHT22;54550;48.838;8.828;2023-04-15T11:45:55;16.20;85.60
67750;DHT22;54550;48.838;8.828;2023-04-15T11:48:32;16.50;83.60
67750;DHT22;54550;48.838;8.828;2023-04-15T11:51:00;16.70;85.00
67750;DHT22;54550;48.838;8.828;2023-04-15T11:53:46;16.50;84.20
67750;DHT22;54550;48.838;8.828;2023-04-15T11:56:22;16.60;85.00
67750;DHT22;54550;48.838;8.828;2023-04-15T11:58:51;16.00;85.30
67750;DHT22;54550;48.838;8.828;2023-04-15T12:01:17;15.40;83.40
67750;DHT22;54550;48.838;8.828;2023-04-15T12:03:45;14.90;84.80
67750;DHT22;54550;48.838;8.828;2023-04-15T12:06:19;14.80;86.50
67750;DHT22;54550;48.838;8.828;2023-04-15T12:11:15;15.00;83.80
67750;DHT22;54550;48.838;8.828;2023-04-15T12:13:48;14.90;84.60
67750;DHT22;54550;48.838;8.828;2023-04-15T12:16:18;14.80;83.90
67750;DHT22;54550;48.838;8.828;2023-04-15T12:18:50;14.90;85.30
67750;DHT22;54550;48.838;8.828;2023-04-15T12:21:19;15.30;83.50
67750;DHT22;54550;48.838;8.828;2023-04-15T12:23:49;16.10;82.30
67750;DHT22;54550;48.838;8.828;2023-04-15T12:26:33;16.80;78.10
67750;DHT22;54550;48.838;8.828;2023-04-15T12:29:04;17.40;79.30
67750;DHT22;54550;48.838;8.828;2023-04-15T12:31:31;17.60;76.70
67750;DHT22;54550;48.838;8.828;2023-04-15T12:33:57;17.80;76.30
67750;DHT22;54550;48.838;8.828;2023-04-15T12:36:23;18.50;75.60
67750;DHT22;54550;48.838;8.828;2023-04-15T12:38:49;18.70;73.20
67750;DHT22;54550;48.838;8.828;2023-04-15T12:41:15;18.90;74.50
67750;DHT22;54550;48.838;8.828;2023-04-15T12:43:42;19.10;72.50
67750;DHT22;54550;48.838;8.828;2023-04-15T12:46:08;20.00;72.70
67750;DHT22;54550;48.838;8.828;2023-04-15T12:48:35;20.20;72.40
67750;DHT22;54550;48.838;8.828;2023-04-15T12:51:01;20.60;71.10
67750;DHT22;54550;48.838;8.828;2023-04-15T12:53:27;20.90;70.50
67750;DHT22;54550;48.838;8.828;2023-04-15T12:55:53;20.50;67.50
67750;DHT22;54550;48.838;8.828;2023-04-15T12:58:18;19.70;68.40
67750;DHT22;54550;48.838;8.828;2023-04-15T13:00:44;18.80;70.20
67750;DHT22;54550;48.838;8.828;2023-04-15T13:03:10;16.60;72.60
67750;DHT22;54550;48.838;8.828;2023-04-15T13:05:36;15.30;77.80
67750;DHT22;54550;48.838;8.828;2023-04-15T13:08:03;13.90;84.30
67750;DHT22;54550;48.838;8.828;2023-04-15T13:10:29;12.60;91.60
67750;DHT22;54550;48.838;8.828;2023-04-15T13:12:55;11.50;96.30
67750;DHT22;54550;48.838;8.828;2023-04-15T13:15:21;10.60;99.90
67750;DHT22;54550;48.838;8.828;2023-04-15T13:17:48;10.20;99.90
67750;DHT22;54550;48.838;8.828;2023-04-15T13:20:13;10.20;99.90
67750;DHT22;54550;48.838;8.828;2023-04-15T13:22:39;10.50;99.90
67750;DHT22;54550;48.838;8.828;2023-04-15T13:25:06;10.90;99.90
67750;DHT22;54550;48.838;8.828;2023-04-15T13:27:32;11.30;99.50
67750;DHT22;54550;48.838;8.828;2023-04-15T13:29:58;11.70;97.70
67750;DHT22;54550;48.838;8.828;2023-04-15T13:32:24;11.90;94.00
67750;DHT22;54550;48.838;8.828;2023-04-15T13:34:49;12.20;93.70
67750;DHT22;54550;48.838;8.828;2023-04-15T13:37:15;12.30;91.50
67750;DHT22;54550;48.838;8.828;2023-04-15T13:39:41;12.30;91.00
67750;DHT22;54550;48.838;8.828;2023-04-15T13:42:06;12.30;91.20
67750;DHT22;54550;48.838;8.828;2023-04-15T13:44:32;12.30;90.00
67750;DHT22;54550;48.838;8.828;2023-04-15T13:46:57;12.20;88.90
67750;DHT22;54550;48.838;8.828;2023-04-15T13:49:23;12.20;89.40
67750;DHT22;54550;48.838;8.828;2023-04-15T13:51:50;12.00;88.90
67750;DHT22;54550;48.838;8.828;2023-04-15T13:54:15;11.90;89.40
67750;DHT22;54550;48.838;8.828;2023-04-15T13:56:41;11.90;88.70
67750;DHT22;54550;48.838;8.828;2023-04-15T13:59:06;11.80;90.00
67750;DHT22;54550;48.838;8.828;2023-04-15T14:01:33;12.00;89.50
67750;DHT22;54550;48.838;8.828;2023-04-15T14:03:59;12.20;90.40
67750;DHT22;54550;48.838;8.828;2023-04-15T14:06:25;12.50;87.90
67750;DHT22;54550;48.838;8.828;2023-04-15T14:08:51;12.90;87.40
67750;DHT22;54550;48.838;8.828;2023-04-15T14:11:17;12.90;82.00
67750;DHT22;54550;48.838;8.828;2023-04-15T14:13:43;12.50;82.70
67750;DHT22;54550;48.838;8.828;2023-04-15T14:16:08;12.20;83.10
67750;DHT22;54550;48.838;8.828;2023-04-15T14:18:34;12.00;84.90
67750;DHT22;54550;48.838;8.828;2023-04-15T14:20:59;11.90;86.60
67750;DHT22;54550;48.838;8.828;2023-04-15T14:23:25;11.80;86.20
67750;DHT22;54550;48.838;8.828;2023-04-15T14:25:50;11.60;87.40
67750;DHT22;54550;48.838;8.828;2023-04-15T14:28:17;11.40;87.50
67750;DHT22;54550;48.838;8.828;2023-04-15T14:30:43;11.40;87.00
67750;DHT22;54550;48.838;8.828;2023-04-15T14:33:08;11.30;87.70
67750;DHT22;54550;48.838;8.828;2023-04-15T14:35:34;11.30;88.80
67750;DHT22;54550;48.838;8.828;2023-04-15T14:37:59;11.20;89.30
67750;DHT22;54550;48.838;8.828;2023-04-15T14:40:25;11.10;89.70
67750;DHT22;54550;48.838;8.828;2023-04-15T14:42:50;11.20;90.30
67750;DHT22;54550;48.838;8.828;2023-04-15T14:45:16;11.30;90.70
67750;DHT22;54550;48.838;8.828;2023-04-15T14:47:42;11.30;90.30
67750;DHT22;54550;48.838;8.828;2023-04-15T14:50:08;11.50;90.40
67750;DHT22;54550;48.838;8.828;2023-04-15T14:52:34;11.50;90.30
67750;DHT22;54550;48.838;8.828;2023-04-15T14:55:07;11.70;90.90
67750;DHT22;54550;48.838;8.828;2023-04-15T14:57:33;11.70;91.20
67750;DHT22;54550;48.838;8.828;2023-04-15T14:59:58;11.70;91.20
67750;DHT22;54550;48.838;8.828;2023-04-15T15:02:24;11.70;89.90
67750;DHT22;54550;48.838;8.828;2023-04-15T15:04:50;11.70;90.50
67750;DHT22;54550;48.838;8.828;2023-04-15T15:07:15;11.80;90.00
67750;DHT22;54550;48.838;8.828;2023-04-15T15:09:41;11.90;90.30
67750;DHT22;54550;48.838;8.828;2023-04-15T15:12:06;11.90;90.40
67750;DHT22;54550;48.838;8.828;2023-04-15T15:14:32;11.90;90.00
67750;DHT22;54550;48.838;8.828;2023-04-15T15:16:58;12.10;90.50
67750;DHT22;54550;48.838;8.828;2023-04-15T15:19:24;12.10;89.90
67750;DHT22;54550;48.838;8.828;2023-04-15T15:21:49;12.10;88.80
67750;DHT22;54550;48.838;8.828;2023-04-15T15:24:15;12.10;90.00
67750;DHT22;54550;48.838;8.828;2023-04-15T15:26:40;12.00;88.50
67750;DHT22;54550;48.838;8.828;2023-04-15T15:29:06;11.70;89.50
67750;DHT22;54550;48.838;8.828;2023-04-15T15:31:34;11.50;89.80
67750;DHT22;54550;48.838;8.828;2023-04-15T15:34:00;11.40;89.50
67750;DHT22;54550;48.838;8.828;2023-04-15T15:36:25;11.20;90.20
67750;DHT22;54550;48.838;8.828;2023-04-15T15:38:54;11.10;90.50
67750;DHT22;54550;48.838;8.828;2023-04-15T15:41:19;10.90;90.40
67750;DHT22;54550;48.838;8.828;2023-04-15T15:43:45;10.70;90.90
67750;DHT22;54550;48.838;8.828;2023-04-15T15:46:11;10.60;91.10
67750;DHT22;54550;48.838;8.828;2023-04-15T15:48:36;10.60;91.20
67750;DHT22;54550;48.838;8.828;2023-04-15T15:51:02;10.50;91.50
67750;DHT22;54550;48.838;8.828;2023-04-15T15:53:28;10.50;91.00
67750;DHT22;54550;48.838;8.828;2023-04-15T15:55:54;10.50;91.30
67750;DHT22;54550;48.838;8.828;2023-04-15T15:58:19;10.40;91.30
67750;DHT22;54550;48.838;8.828;2023-04-15T16:00:45;10.50;91.50